Time;durP1;ratioP1;P1;durP2;ratioP2;P2;SDS_P1;SDS_P2;PMS_P1;PMS_P2;Temp;Humidity;BMP_temperature;BMP_pressure;BME280_temperature;BME280_humidity;BME280_pressure;Samples;Min_cycle;Max_cycle;Signal;HPM_P1;HPM_P2
2022/03/16 00:01:16;;;;;;;2.30;1.10;;;2.80;99.90;;;;;;5050179;28;20185;-75
2022/03/16 00:03:41;;;;;;;1.33;1.23;;;2.80;99.90;;;;;;5051579;28;20280;-78
2022/03/16 00:06:07;;;;;;;7.47;3.17;;;2.80;99.90;;;;;;5051426;28;20552;-78
2022/03/16 00:08:33;;;;;;;5.37;3.50;;;2.80;99.90;;;;;;5051845;28;20206;-78
2022/03/16 00:10:59;;;;;;;1.90;1.80;;;2.70;99.90;;;;;;5051655;28;20177;-79
2022/03/16 00:13:25;;;;;;;1.50;1.50;;;2.80;99.90;;;;;;5051490;28;20189;-79
2022/03/16 00:15:50;;;;;;;2.53;2.43;;;2.80;99.90;;;;;;5051308;28;20573;-78
2022/03/16 00:18:19;;;;;;;5.40;4.33;;;2.80;99.90;;;;;;5050204;28;20230;-78
2022/03/16 00:20:46;;;;;;;2.10;1.53;;;2.80;99.90;;;;;;5051399;28;20204;-78
2022/03/16 00:23:12;;;;;;;1.10;1.07;;;2.80;99.90;;;;;;5051321;28;20690;-77
2022/03/16 00:25:37;;;;;;;0.33;0.33;;;2.70;99.90;;;;;;5064821;28;20334;-78
2022/03/16 00:28:03;;;;;;;0.67;0.67;;;2.60;99.90;;;;;;5051770;28;20176;-79
2022/03/16 00:30:28;;;;;;;2.37;2.27;;;2.60;99.90;;;;;;5051303;28;20173;-80
2022/03/16 00:32:54;;;;;;;2.33;2.17;;;2.50;99.90;;;;;;5051116;28;20241;-77
2022/03/16 00:35:19;;;;;;;0.57;0.57;;;2.50;99.90;;;;;;5051534;28;20232;-77
2022/03/16 00:37:46;;;;;;;1.70;1.60;;;2.40;99.90;;;;;;5049922;28;20184;-77
2022/03/16 00:40:12;;;;;;;2.00;1.83;;;2.30;99.90;;;;;;5051127;28;20177;-77
2022/03/16 00:42:38;;;;;;;3.47;3.20;;;2.30;99.90;;;;;;5051085;28;20192;-78
2022/03/16 00:45:04;;;;;;;0.87;0.87;;;2.30;99.90;;;;;;5051124;28;20200;-77
2022/03/16 00:47:30;;;;;;;1.90;1.57;;;2.40;99.90;;;;;;5051266;28;20329;-77
2022/03/16 00:49:56;;;;;;;3.67;2.77;;;2.40;99.90;;;;;;5049236;28;20694;-78
2022/03/16 00:52:21;;;;;;;1.17;1.17;;;2.30;99.90;;;;;;5052032;28;20271;-77
2022/03/16 00:54:47;;;;;;;3.67;3.43;;;2.40;99.90;;;;;;5055318;28;20199;-77
2022/03/16 00:57:13;;;;;;;2.63;1.57;;;2.40;99.90;;;;;;5056239;28;20185;-77
2022/03/16 00:59:39;;;;;;;0.40;0.40;;;2.40;99.90;;;;;;5055896;28;20191;-77
2022/03/16 01:02:05;;;;;;;1.37;1.27;;;2.40;99.90;;;;;;5055230;28;20586;-77
2022/03/16 01:04:31;;;;;;;0.20;0.20;;;2.40;99.90;;;;;;5056763;28;20257;-77
2022/03/16 01:06:56;;;;;;;4.77;3.67;;;2.40;99.90;;;;;;5057824;28;20627;-77
2022/03/16 01:09:22;;;;;;;1.17;1.00;;;2.40;99.90;;;;;;5059504;28;20169;-77
2022/03/16 01:11:48;;;;;;;1.47;1.37;;;2.40;99.90;;;;;;5058401;28;20632;-77
2022/03/16 01:14:13;;;;;;;1.43;1.43;;;2.30;99.90;;;;;;5058918;28;20266;-79
2022/03/16 01:16:39;;;;;;;1.83;1.73;;;2.40;99.90;;;;;;5058532;28;20181;-76
2022/03/16 01:19:05;;;;;;;0.87;0.83;;;2.40;99.90;;;;;;5056413;28;20202;-78
2022/03/16 01:21:33;;;;;;;2.63;2.53;;;2.40;99.90;;;;;;5053114;28;20195;-77
2022/03/16 01:23:59;;;;;;;3.70;2.67;;;2.40;99.90;;;;;;5053389;28;20219;-78
2022/03/16 01:26:25;;;;;;;0.73;0.73;;;2.40;99.90;;;;;;5053514;28;20173;-78
2022/03/16 01:28:51;;;;;;;1.33;1.33;;;2.40;99.90;;;;;;5070007;28;20184;-78
2022/03/16 01:31:19;;;;;;;2.40;2.20;;;2.40;99.90;;;;;;5054199;28;20532;-78
2022/03/16 01:33:45;;;;;;;1.93;1.83;;;2.40;99.90;;;;;;5054525;28;20192;-76
2022/03/16 01:36:11;;;;;;;2.27;2.17;;;2.30;99.90;;;;;;5054407;28;20570;-77
2022/03/16 01:38:36;;;;;;;1.47;1.37;;;2.20;99.90;;;;;;5054737;28;20212;-77
2022/03/16 01:41:03;;;;;;;4.43;2.50;;;2.20;99.90;;;;;;5055082;28;20181;-77
2022/03/16 01:43:29;;;;;;;3.00;2.80;;;2.10;99.90;;;;;;5054097;28;20615;-77
2022/03/16 01:45:54;;;;;;;0.60;0.53;;;2.10;99.90;;;;;;5054555;28;20204;-77
2022/03/16 01:48:20;;;;;;;1.13;1.13;;;2.00;99.90;;;;;;5054934;28;20610;-78
2022/03/16 01:50:47;;;;;;;0.30;0.30;;;1.90;99.90;;;;;;5054125;28;20190;-78
2022/03/16 01:53:14;;;;;;;2.90;2.67;;;1.90;99.90;;;;;;5054690;28;20215;-77
2022/03/16 01:55:41;;;;;;;0.63;0.63;;;1.80;99.90;;;;;;5054026;28;20638;-77
2022/03/16 01:58:07;;;;;;;1.90;1.80;;;1.90;99.90;;;;;;5054186;28;20177;-77
2022/03/16 02:00:33;;;;;;;1.93;1.40;;;1.90;99.90;;;;;;5054567;28;20172;-78
2022/03/16 02:02:58;;;;;;;1.60;1.37;;;2.00;99.90;;;;;;5053944;28;20184;-78
2022/03/16 02:05:24;;;;;;;3.23;2.97;;;2.00;99.90;;;;;;5054302;28;20273;-77
2022/03/16 02:07:50;;;;;;;2.90;2.70;;;1.90;99.90;;;;;;5054085;28;20264;-77
2022/03/16 02:10:17;;;;;;;2.73;2.23;;;2.00;99.90;;;;;;5054352;28;20254;-78
2022/03/16 02:12:49;;;;;;;1.70;1.60;;;2.00;99.90;;;;;;5052386;28;20180;-78
2022/03/16 02:15:16;;;;;;;0.90;0.90;;;2.00;99.90;;;;;;5070813;22;20318;-77
2022/03/16 02:17:42;;;;;;;0.93;0.77;;;2.00;99.90;;;;;;5053962;28;20179;-78
2022/03/16 02:20:08;;;;;;;2.83;2.33;;;2.00;99.90;;;;;;5072795;28;20243;-77
2022/03/16 02:22:54;;;;;;;1.77;1.33;;;2.00;99.90;;;;;;5072217;28;20224;-76
2022/03/16 02:25:20;;;;;;;0.30;0.30;;;2.00;99.90;;;;;;5060285;28;20700;-76
2022/03/16 02:27:46;;;;;;;0.87;0.87;;;1.90;99.90;;;;;;5052754;28;20189;-77
2022/03/16 02:30:12;;;;;;;2.20;2.00;;;1.90;99.90;;;;;;5053362;28;20557;-77
2022/03/16 02:32:38;;;;;;;2.10;2.00;;;1.90;99.90;;;;;;5053046;28;20257;-77
2022/03/16 02:35:04;;;;;;;0.63;0.63;;;1.90;99.90;;;;;;5035672;28;20205;-77
2022/03/16 02:37:30;;;;;;;1.10;1.10;;;1.80;99.90;;;;;;5053532;28;20179;-77
2022/03/16 02:39:55;;;;;;;2.33;2.10;;;1.80;99.90;;;;;;5053188;28;20190;-77
2022/03/16 02:42:22;;;;;;;1.20;1.20;;;1.90;99.90;;;;;;5054754;28;20177;-78
2022/03/16 02:44:48;;;;;;;2.33;1.50;;;1.90;99.90;;;;;;5040847;28;20208;-78
2022/03/16 02:47:13;;;;;;;2.47;2.37;;;1.80;99.90;;;;;;5054395;28;20259;-78
2022/03/16 02:49:39;;;;;;;1.70;1.63;;;1.80;99.90;;;;;;5054051;28;20727;-77
2022/03/16 02:52:09;;;;;;;1.30;1.30;;;1.70;99.90;;;;;;5054279;28;20267;-77
2022/03/16 02:54:34;;;;;;;1.93;1.83;;;1.70;99.90;;;;;;5057890;28;20179;-78
2022/03/16 02:57:00;;;;;;;0.40;0.40;;;1.80;99.90;;;;;;5054665;28;20189;-78
2022/03/16 02:59:26;;;;;;;1.47;1.43;;;1.90;99.90;;;;;;5054621;28;20543;-77
2022/03/16 03:01:52;;;;;;;1.03;1.03;;;1.90;99.90;;;;;;5036891;28;20551;-78
2022/03/16 03:04:17;;;;;;;1.13;1.13;;;1.90;99.90;;;;;;5054093;28;20240;-77
2022/03/16 03:06:43;;;;;;;1.33;1.30;;;1.90;99.90;;;;;;5035854;28;20212;-77
2022/03/16 03:09:09;;;;;;;0.63;0.63;;;1.90;99.90;;;;;;5036233;28;20720;-78
2022/03/16 03:11:34;;;;;;;1.40;1.13;;;1.90;99.90;;;;;;5053244;28;20174;-77
2022/03/16 03:14:00;;;;;;;1.93;1.83;;;1.80;99.90;;;;;;5053435;28;20557;-77
2022/03/16 03:16:25;;;;;;;0.30;0.30;;;1.80;99.90;;;;;;5053242;28;20211;-77
2022/03/16 03:18:51;;;;;;;0.70;0.70;;;1.80;99.90;;;;;;5052947;28;20184;-77
2022/03/16 03:21:16;;;;;;;1.90;1.80;;;1.80;99.90;;;;;;5034616;28;20184;-75
2022/03/16 03:23:42;;;;;;;1.70;1.70;;;1.90;99.90;;;;;;5052424;28;20198;-76
2022/03/16 03:26:07;;;;;;;4.43;1.47;;;1.80;99.90;;;;;;5052493;28;20666;-76
2022/03/16 03:28:33;;;;;;;1.80;1.20;;;1.70;99.90;;;;;;5052762;28;20201;-76
2022/03/16 03:30:58;;;;;;;1.20;1.03;;;1.70;99.90;;;;;;5052626;28;20177;-76
2022/03/16 03:33:24;;;;;;;4.53;0.40;;;1.70;99.90;;;;;;5052377;28;20176;-76
2022/03/16 03:35:50;;;;;;;3.67;3.40;;;1.70;99.90;;;;;;5052756;28;20667;-76
2022/03/16 03:38:17;;;;;;;2.37;2.17;;;1.70;99.90;;;;;;5053236;28;20173;-76
2022/03/16 03:40:43;;;;;;;3.17;2.43;;;1.60;99.90;;;;;;5053618;28;20192;-76
2022/03/16 03:43:09;;;;;;;0.47;0.47;;;1.70;99.90;;;;;;5034403;28;20197;-76
2022/03/16 03:45:34;;;;;;;4.27;3.97;;;1.70;99.90;;;;;;5052858;28;20239;-75
2022/03/16 03:48:00;;;;;;;2.00;1.90;;;1.70;99.90;;;;;;5053058;28;20181;-75
2022/03/16 03:50:26;;;;;;;2.83;2.50;;;1.70;99.90;;;;;;5052078;28;20230;-75
2022/03/16 03:52:51;;;;;;;1.13;1.10;;;1.70;99.90;;;;;;5051440;28;20235;-76
2022/03/16 03:55:17;;;;;;;1.33;1.23;;;1.70;99.90;;;;;;5052130;28;20208;-77
2022/03/16 03:57:42;;;;;;;1.70;1.47;;;1.60;99.90;;;;;;5052216;28;20273;-77
2022/03/16 04:00:08;;;;;;;3.13;1.70;;;1.50;99.90;;;;;;5052430;28;20177;-76
2022/03/16 04:02:34;;;;;;;5.53;1.90;;;1.50;99.90;;;;;;5051993;28;20268;-77
2022/03/16 04:05:02;;;;;;;1.13;1.13;;;1.60;99.90;;;;;;5052804;28;20689;-76
2022/03/16 04:07:28;;;;;;;2.00;1.90;;;1.50;99.90;;;;;;5052965;28;20169;-76
2022/03/16 04:09:53;;;;;;;1.60;1.50;;;1.40;99.90;;;;;;5051876;28;20531;-75
2022/03/16 04:12:19;;;;;;;1.90;1.73;;;1.40;99.90;;;;;;5051265;28;20687;-75
2022/03/16 04:14:45;;;;;;;0.10;0.10;;;1.30;99.90;;;;;;5033870;28;20246;-75
2022/03/16 04:17:10;;;;;;;7.23;2.83;;;1.30;99.90;;;;;;5033631;28;20686;-74
2022/03/16 04:19:36;;;;;;;0.27;0.27;;;1.30;99.90;;;;;;5051841;28;20530;-75
2022/03/16 04:22:02;;;;;;;1.93;1.87;;;1.40;99.90;;;;;;5033086;28;20185;-75
2022/03/16 04:24:27;;;;;;;5.37;3.53;;;1.50;99.90;;;;;;5051452;28;20204;-75
2022/03/16 04:26:53;;;;;;;1.10;1.10;;;1.80;99.90;;;;;;5051515;28;20207;-75
2022/03/16 04:29:19;;;;;;;2.90;2.67;;;1.80;99.90;;;;;;5051766;28;20180;-75
2022/03/16 04:31:44;;;;;;;1.50;1.43;;;1.90;99.90;;;;;;5050970;28;20173;-75
2022/03/16 04:34:10;;;;;;;2.70;2.47;;;2.00;99.90;;;;;;5033725;28;20231;-74
2022/03/16 04:36:35;;;;;;;1.43;1.43;;;2.10;99.90;;;;;;5051047;28;20205;-75
2022/03/16 04:39:01;;;;;;;2.40;2.30;;;2.10;99.90;;;;;;5050836;28;20212;-75
2022/03/16 04:41:27;;;;;;;0.47;0.47;;;2.20;99.90;;;;;;5051392;28;20173;-75
2022/03/16 04:43:52;;;;;;;3.23;2.43;;;2.20;99.90;;;;;;5053212;28;20543;-75
2022/03/16 04:46:19;;;;;;;4.13;1.80;;;2.30;99.90;;;;;;5064892;28;20189;-74
2022/03/16 04:48:44;;;;;;;2.27;2.17;;;2.30;99.90;;;;;;5054092;28;20515;-77
2022/03/16 04:51:10;;;;;;;2.83;2.63;;;2.30;99.90;;;;;;5052948;28;20399;-75
2022/03/16 04:53:36;;;;;;;9.83;4.93;;;2.40;99.90;;;;;;5052974;28;20188;-75
2022/03/16 04:56:01;;;;;;;5.43;4.93;;;2.40;99.90;;;;;;5053926;28;20202;-76
2022/03/16 04:58:27;;;;;;;3.53;3.23;;;2.50;99.90;;;;;;5055077;28;20177;-75
2022/03/16 05:00:52;;;;;;;1.87;1.77;;;2.50;99.90;;;;;;5053665;28;20187;-75
2022/03/16 05:03:18;;;;;;;2.40;2.30;;;2.50;99.90;;;;;;5053526;28;20202;-76
2022/03/16 05:05:43;;;;;;;3.63;3.43;;;2.50;99.90;;;;;;5052901;28;20281;-76
2022/03/16 05:08:09;;;;;;;0.93;0.93;;;2.60;99.90;;;;;;5052075;28;20261;-75
2022/03/16 05:10:35;;;;;;;6.23;5.80;;;2.60;99.90;;;;;;5034482;28;20179;-75
2022/03/16 05:13:00;;;;;;;5.93;5.53;;;2.60;99.90;;;;;;5053042;28;20583;-75
2022/03/16 05:15:26;;;;;;;2.47;2.00;;;2.60;99.90;;;;;;5051704;28;20218;-75
2022/03/16 05:17:52;;;;;;;0.77;0.77;;;2.60;99.90;;;;;;5052822;28;20166;-76
2022/03/16 05:20:18;;;;;;;2.20;2.10;;;2.60;99.90;;;;;;5053196;28;20305;-75
2022/03/16 05:22:48;;;;;;;3.73;2.47;;;2.60;99.90;;;;;;5035149;28;20229;-75
2022/03/16 05:25:22;;;;;;;2.30;2.20;;;2.70;99.90;;;;;;5054007;28;20190;-76
2022/03/16 05:27:47;;;;;;;3.67;3.40;;;2.80;99.90;;;;;;5035412;28;20179;-76
2022/03/16 05:30:14;;;;;;;4.03;3.73;;;2.80;99.90;;;;;;5035577;28;20182;-76
2022/03/16 05:32:41;;;;;;;3.27;3.03;;;2.90;99.90;;;;;;5052607;28;20177;-76
2022/03/16 05:35:08;;;;;;;4.80;4.33;;;2.90;99.90;;;;;;5035505;28;20207;-76
2022/03/16 05:37:34;;;;;;;7.47;6.03;;;2.90;99.90;;;;;;5053137;28;20737;-76
2022/03/16 05:40:00;;;;;;;2.63;1.50;;;2.90;99.90;;;;;;5052859;28;20186;-76
2022/03/16 05:42:26;;;;;;;1.80;1.70;;;2.90;99.90;;;;;;5035530;28;20592;-76
2022/03/16 05:44:54;;;;;;;1.63;1.60;;;2.90;99.90;;;;;;5052519;28;20221;-75
2022/03/16 05:47:21;;;;;;;4.90;4.33;;;3.00;99.90;;;;;;5052550;28;20218;-76
2022/03/16 05:49:48;;;;;;;3.40;3.20;;;2.90;99.90;;;;;;5052742;28;20660;-75
2022/03/16 05:52:15;;;;;;;6.70;6.13;;;3.00;99.90;;;;;;5053274;28;20223;-76
2022/03/16 05:54:41;;;;;;;6.77;3.80;;;2.90;99.90;;;;;;5053323;28;20187;-76
2022/03/16 05:57:07;;;;;;;5.13;3.10;;;2.90;99.90;;;;;;5054413;28;20547;-76
2022/03/16 05:59:32;;;;;;;7.87;6.57;;;2.90;99.90;;;;;;5054407;28;20193;-76
2022/03/16 06:01:58;;;;;;;1.67;1.63;;;2.90;99.90;;;;;;5053990;28;20182;-76
2022/03/16 06:04:23;;;;;;;1.90;1.80;;;2.90;99.90;;;;;;5054251;28;20669;-76
2022/03/16 06:06:48;;;;;;;2.47;2.27;;;2.80;99.90;;;;;;5054359;28;20248;-75
2022/03/16 06:09:14;;;;;;;4.20;2.50;;;2.80;99.90;;;;;;5054713;28;20250;-76
2022/03/16 06:11:41;;;;;;;3.40;3.10;;;2.60;99.90;;;;;;5054433;28;20535;-76
2022/03/16 06:14:06;;;;;;;3.30;3.10;;;2.60;99.90;;;;;;5054360;28;20676;-76
2022/03/16 06:16:32;;;;;;;1.87;1.77;;;2.50;99.90;;;;;;5036194;28;20240;-75
2022/03/16 06:18:57;;;;;;;2.83;2.60;;;2.50;99.90;;;;;;5054167;28;20201;-75
2022/03/16 06:21:23;;;;;;;8.27;3.80;;;2.50;99.90;;;;;;5036043;28;20183;-75
2022/03/16 06:23:48;;;;;;;2.73;2.57;;;2.50;99.90;;;;;;5036009;28;20212;-75
2022/03/16 06:26:14;;;;;;;2.17;2.07;;;2.60;99.90;;;;;;5045469;28;20261;-75
2022/03/16 06:28:40;;;;;;;6.40;5.67;;;2.70;99.90;;;;;;5053738;28;20536;-75
2022/03/16 06:31:05;;;;;;;2.67;2.47;;;2.80;99.90;;;;;;5035904;28;20183;-76
2022/03/16 06:33:31;;;;;;;6.10;5.67;;;2.90;99.90;;;;;;5039401;28;20195;-76
2022/03/16 06:35:56;;;;;;;1.20;1.10;;;2.90;99.90;;;;;;5035928;28;20200;-76
2022/03/16 06:38:22;;;;;;;1.80;1.60;;;2.90;99.90;;;;;;5036337;28;20182;-77
2022/03/16 06:40:47;;;;;;;1.77;1.70;;;2.90;99.90;;;;;;5036068;28;20178;-76
2022/03/16 06:43:13;;;;;;;10.27;4.53;;;3.00;99.90;;;;;;5035370;28;20203;-76
2022/03/16 06:45:38;;;;;;;9.43;5.43;;;3.10;99.90;;;;;;5056241;28;20245;-79
2022/03/16 06:48:04;;;;;;;12.10;4.37;;;3.10;99.90;;;;;;5054926;28;20671;-77
2022/03/16 06:50:30;;;;;;;6.87;4.43;;;3.20;99.90;;;;;;5053730;28;20252;-78
2022/03/16 06:52:57;;;;;;;5.27;4.17;;;3.30;99.90;;;;;;5053796;28;20213;-77
2022/03/16 06:55:23;;;;;;;6.03;3.67;;;3.30;99.90;;;;;;5054041;28;20198;-77
2022/03/16 06:57:49;;;;;;;5.13;4.67;;;3.40;99.90;;;;;;5053818;28;20178;-77
2022/03/16 07:00:15;;;;;;;9.60;4.10;;;3.40;99.90;;;;;;5053971;28;20170;-78
2022/03/16 07:03:00;;;;;;;5.17;4.70;;;3.40;99.90;;;;;;5055341;28;20317;-77
2022/03/16 07:05:31;;;;;;;4.67;3.50;;;3.50;99.90;;;;;;5054698;28;20202;-77
2022/03/16 07:07:58;;;;;;;15.90;5.67;;;3.50;99.90;;;;;;5054024;28;20176;-77
2022/03/16 07:10:24;;;;;;;15.00;5.07;;;3.60;99.90;;;;;;5035530;28;20670;-78
2022/03/16 07:12:50;;;;;;;4.83;4.40;;;3.60;99.90;;;;;;5053137;28;20182;-78
2022/03/16 07:15:16;;;;;;;6.53;3.40;;;3.60;99.90;;;;;;5051991;28;20211;-78
2022/03/16 07:17:42;;;;;;;4.70;4.47;;;3.60;99.90;;;;;;5053392;28;20172;-78
2022/03/16 07:20:08;;;;;;;8.17;5.07;;;3.70;99.90;;;;;;5053144;28;20183;-78
2022/03/16 07:22:37;;;;;;;1.27;1.27;;;3.70;99.90;;;;;;5053161;28;20165;-77
2022/03/16 07:25:09;;;;;;;26.70;5.93;;;3.70;99.90;;;;;;5052880;28;20262;-77
2022/03/16 07:27:39;;;;;;;5.90;5.40;;;3.70;99.90;;;;;;5034417;28;20267;-77
2022/03/16 07:30:07;;;;;;;6.43;5.10;;;3.80;99.90;;;;;;5053067;28;20180;-77
2022/03/16 07:32:36;;;;;;;4.97;4.60;;;3.80;99.90;;;;;;5052734;28;20188;-78
2022/03/16 07:35:01;;;;;;;3.40;2.53;;;3.90;99.90;;;;;;5053036;28;20208;-77
2022/03/16 07:37:27;;;;;;;8.60;5.70;;;4.00;99.90;;;;;;5048818;28;20178;-77
2022/03/16 07:39:52;;;;;;;11.40;5.37;;;4.00;99.90;;;;;;5048475;28;20176;-77
2022/03/16 07:42:18;;;;;;;8.50;4.70;;;4.00;99.90;;;;;;5034965;28;20560;-78
2022/03/16 07:44:44;;;;;;;4.83;4.30;;;4.10;99.90;;;;;;5052612;28;20216;-77
2022/03/16 07:47:09;;;;;;;3.37;2.83;;;4.30;99.90;;;;;;5052868;28;20188;-78
2022/03/16 07:49:35;;;;;;;6.30;5.10;;;4.30;99.90;;;;;;5034815;28;20172;-77
2022/03/16 07:52:01;;;;;;;5.50;5.10;;;4.30;99.90;;;;;;5050212;28;20180;-75
2022/03/16 07:54:27;;;;;;;4.80;2.77;;;4.40;99.90;;;;;;5056387;28;20169;-75
2022/03/16 07:56:53;;;;;;;7.53;5.47;;;4.60;99.90;;;;;;5051277;28;20211;-76
2022/03/16 07:59:19;;;;;;;12.60;4.93;;;4.60;99.90;;;;;;5063936;28;20180;-76
2022/03/16 08:01:44;;;;;;;6.23;4.63;;;4.60;99.90;;;;;;5051344;28;20188;-76
2022/03/16 08:04:10;;;;;;;5.40;4.93;;;4.60;99.90;;;;;;5050696;28;20220;-75
2022/03/16 08:06:36;;;;;;;4.80;4.50;;;4.70;99.90;;;;;;5058669;28;20200;-76
2022/03/16 08:09:01;;;;;;;10.23;6.43;;;4.80;99.90;;;;;;5051477;28;20178;-76
2022/03/16 08:11:27;;;;;;;2.27;2.17;;;4.90;99.90;;;;;;5033459;28;20623;-76
2022/03/16 08:13:52;;;;;;;3.50;3.30;;;5.10;99.90;;;;;;5050916;28;20188;-76
2022/03/16 08:16:18;;;;;;;14.30;4.07;;;5.40;99.90;;;;;;5079340;22;20223;-77
2022/03/16 08:18:43;;;;;;;4.30;3.53;;;5.50;99.90;;;;;;5071467;28;20172;-78
2022/03/16 08:21:11;;;;;;;9.47;4.30;;;5.60;99.90;;;;;;5070269;28;20198;-78
2022/03/16 08:23:37;;;;;;;8.63;4.00;;;5.60;99.90;;;;;;5072837;28;20191;-77
2022/03/16 08:26:03;;;;;;;4.27;2.40;;;5.70;99.90;;;;;;5082602;28;20192;-77
2022/03/16 08:28:28;;;;;;;3.40;3.20;;;5.80;99.90;;;;;;5071456;28;20279;-78
2022/03/16 08:30:54;;;;;;;5.53;4.33;;;5.80;99.90;;;;;;5070162;28;20173;-78
2022/03/16 08:33:19;;;;;;;6.93;4.87;;;5.90;99.90;;;;;;5071366;28;20269;-77
2022/03/16 08:35:45;;;;;;;7.53;4.70;;;5.90;99.90;;;;;;5071241;28;20691;-79
2022/03/16 08:38:11;;;;;;;12.80;9.75;;;6.00;99.90;;;;;;5070910;28;20406;-78
2022/03/16 08:40:36;;;;;;;4.83;4.30;;;6.10;99.90;;;;;;5071438;28;20176;-78
2022/03/16 08:43:02;;;;;;;3.23;2.90;;;6.10;99.90;;;;;;5070923;28;20229;-77
2022/03/16 08:45:28;;;;;;;3.90;2.90;;;6.10;99.90;;;;;;5071294;28;20179;-78
2022/03/16 08:47:54;;;;;;;4.63;4.23;;;6.10;99.90;;;;;;5071622;28;20540;-77
2022/03/16 08:50:20;;;;;;;5.60;5.17;;;6.20;99.90;;;;;;5069887;28;20269;-77
2022/03/16 08:52:47;;;;;;;3.10;2.33;;;6.40;99.90;;;;;;5070711;28;20670;-81
2022/03/16 08:55:15;;;;;;;7.73;5.43;;;6.60;99.90;;;;;;5071372;28;20631;-78
2022/03/16 08:57:43;;;;;;;3.10;2.93;;;6.80;99.90;;;;;;5069765;28;20212;-78
2022/03/16 09:00:14;;;;;;;8.87;6.17;;;7.00;99.90;;;;;;5071505;28;20188;-78
2022/03/16 09:02:40;;;;;;;3.47;3.10;;;7.10;99.90;;;;;;5069747;28;20650;-78
2022/03/16 09:05:06;;;;;;;4.40;3.87;;;7.40;99.90;;;;;;5071318;28;20346;-78
2022/03/16 09:07:32;;;;;;;5.27;4.87;;;7.40;99.90;;;;;;5071052;28;20204;-77
2022/03/16 09:09:57;;;;;;;4.83;3.07;;;7.50;99.90;;;;;;5071488;28;20270;-78
2022/03/16 09:12:24;;;;;;;1.73;1.63;;;7.70;99.90;;;;;;5070631;28;20202;-81
2022/03/16 09:14:49;;;;;;;4.60;3.50;;;7.80;99.90;;;;;;5071246;28;20185;-79
2022/03/16 09:17:17;;;;;;;3.27;3.07;;;7.90;99.90;;;;;;5070868;28;20344;-78
2022/03/16 09:19:43;;;;;;;4.20;3.93;;;8.30;99.90;;;;;;5070997;28;20200;-76
2022/03/16 09:22:09;;;;;;;1.93;1.27;;;8.40;99.90;;;;;;5071097;28;20185;-76
2022/03/16 09:24:38;;;;;;;3.50;1.90;;;8.50;99.90;;;;;;5080611;28;20199;-77
2022/03/16 09:27:04;;;;;;;1.67;1.40;;;8.60;99.90;;;;;;5078023;28;20709;-77
2022/03/16 09:29:29;;;;;;;3.43;2.50;;;8.90;99.90;;;;;;5074335;28;20181;-78
2022/03/16 09:31:55;;;;;;;2.80;1.63;;;9.00;99.90;;;;;;5074550;28;20230;-78
2022/03/16 09:34:21;;;;;;;2.70;2.30;;;9.20;99.90;;;;;;5073477;28;20184;-78
2022/03/16 09:36:47;;;;;;;2.90;2.43;;;9.40;99.90;;;;;;5074447;28;20192;-78
2022/03/16 09:39:13;;;;;;;6.43;3.27;;;9.30;99.90;;;;;;5074569;28;20171;-78
2022/03/16 09:41:39;;;;;;;2.47;2.00;;;9.20;99.90;;;;;;5073814;28;20546;-79
2022/03/16 09:44:06;;;;;;;3.20;2.63;;;9.40;99.90;;;;;;5074411;28;20207;-77
2022/03/16 09:46:34;;;;;;;5.17;3.13;;;9.60;99.90;;;;;;5074190;28;20192;-78
2022/03/16 09:49:00;;;;;;;5.30;2.40;;;9.60;99.90;;;;;;5073123;28;20180;-78
2022/03/16 09:51:26;;;;;;;3.90;2.17;;;9.80;99.90;;;;;;5073991;28;20217;-79
2022/03/16 09:53:52;;;;;;;1.93;1.13;;;9.90;99.90;;;;;;5073040;28;20184;-79
2022/03/16 09:56:21;;;;;;;0.87;0.87;;;9.90;99.90;;;;;;5074397;28;20579;-78
2022/03/16 09:58:47;;;;;;;3.87;2.77;;;9.90;99.90;;;;;;5073010;28;20173;-78
2022/03/16 10:01:12;;;;;;;1.23;1.07;;;9.90;99.90;;;;;;5074373;28;20199;-78
2022/03/16 10:03:38;;;;;;;3.60;1.60;;;10.00;99.90;;;;;;5073308;28;20290;-79
2022/03/16 10:06:08;;;;;;;2.90;2.77;;;10.10;99.90;;;;;;5074286;28;20195;-79
2022/03/16 10:08:36;;;;;;;2.10;1.90;;;10.20;99.90;;;;;;5074383;28;20188;-78
2022/03/16 10:13:57;;;;;;;1.77;1.67;;;10.40;99.90;;;;;;5074634;28;20225;-78
2022/03/16 10:16:23;;;;;;;2.50;2.30;;;10.40;99.90;;;;;;5073970;28;20208;-80
2022/03/16 10:18:55;;;;;;;0.60;0.60;;;10.50;99.90;;;;;;5073816;28;20184;-79
2022/03/16 10:21:22;;;;;;;2.97;1.53;;;10.50;99.90;;;;;;5073694;28;20180;-78
2022/03/16 10:23:47;;;;;;;1.80;1.70;;;10.80;99.90;;;;;;5072248;28;20671;-79
2022/03/16 10:26:17;;;;;;;2.30;1.70;;;10.90;99.90;;;;;;5073974;28;20203;-78
2022/03/16 10:28:46;;;;;;;1.87;1.77;;;10.80;99.90;;;;;;5072720;28;20183;-78
2022/03/16 10:31:14;;;;;;;2.87;2.53;;;11.00;99.90;;;;;;5072562;28;20172;-79
2022/03/16 10:33:54;;;;;;;3.10;3.00;;;10.90;99.90;;;;;;5073434;28;20259;-79
2022/03/16 10:36:21;;;;;;;5.90;2.60;;;11.20;99.90;;;;;;5073615;28;20205;-78
2022/03/16 10:38:55;;;;;;;2.50;2.10;;;11.30;99.90;;;;;;5073355;28;20174;-78
2022/03/16 10:46:52;;;;;;;2.60;1.07;;;11.80;99.90;;;;;;5073433;28;20196;-78
2022/03/16 10:49:22;;;;;;;1.93;1.47;;;11.80;99.90;;;;;;5073717;28;20252;-78
2022/03/16 10:52:07;;;;;;;1.80;1.70;;;11.80;99.90;;;;;;5072982;28;20191;-78
2022/03/16 10:54:35;;;;;;;3.70;1.67;;;11.60;99.90;;;;;;5073297;28;20194;-79
2022/03/16 10:57:02;;;;;;;3.83;1.87;;;11.60;99.90;;;;;;5073208;28;20667;-79
2022/03/16 10:59:30;;;;;;;4.13;3.77;;;11.50;99.90;;;;;;5071631;28;20203;-78
2022/03/16 11:02:12;;;;;;;0.80;0.80;;;11.60;99.90;;;;;;5072189;28;20177;-78
2022/03/16 11:04:38;;;;;;;2.00;1.37;;;11.50;99.90;;;;;;5070858;28;20204;-79
2022/03/16 11:07:05;;;;;;;2.40;2.30;;;11.50;99.90;;;;;;5074305;28;20188;-82
2022/03/16 11:09:32;;;;;;;2.93;2.83;;;11.70;99.90;;;;;;5074283;28;20172;-77
2022/03/16 11:14:44;;;;;;;3.60;2.97;;;12.30;99.90;;;;;;5073272;28;20273;-79
2022/03/16 11:17:11;;;;;;;3.13;2.63;;;12.30;99.90;;;;;;5072817;28;20231;-79
2022/03/16 11:19:37;;;;;;;6.50;2.03;;;12.30;99.90;;;;;;5073077;28;20179;-79
2022/03/16 11:22:15;;;;;;;2.70;2.43;;;11.90;99.90;;;;;;5072413;28;20194;-80
2022/03/16 11:24:47;;;;;;;0.83;0.73;;;11.60;99.90;;;;;;5072714;28;20254;-78
2022/03/16 11:27:49;;;;;;;3.10;1.13;;;11.70;99.90;;;;;;5072731;28;20192;-78
2022/03/16 11:30:36;;;;;;;0.97;0.97;;;11.80;99.90;;;;;;5071546;28;20176;-79
2022/03/16 11:33:05;;;;;;;1.07;1.07;;;12.10;99.90;;;;;;5072343;28;20169;-79
2022/03/16 11:35:36;;;;;;;1.93;1.83;;;12.20;99.90;;;;;;5071001;28;20176;-79
2022/03/16 11:38:09;;;;;;;1.60;1.50;;;12.50;99.90;;;;;;5071000;28;20272;-77
2022/03/16 11:40:36;;;;;;;2.90;2.70;;;12.40;99.90;;;;;;5072193;28;20206;-77
2022/03/16 11:43:04;;;;;;;5.00;2.17;;;12.20;99.90;;;;;;5071731;28;20568;-76
2022/03/16 11:45:43;;;;;;;3.37;1.30;;;12.20;99.90;;;;;;5070650;28;20174;-76
2022/03/16 11:48:28;;;;;;;3.57;2.00;;;12.20;99.90;;;;;;5071970;28;20176;-77
2022/03/16 11:56:23;;;;;;;3.50;2.20;;;12.50;99.90;;;;;;5071793;28;20196;-78
2022/03/16 11:58:53;;;;;;;0.57;0.57;;;12.70;99.90;;;;;;5071792;28;20180;-76
2022/03/16 12:01:28;;;;;;;5.70;1.90;;;12.70;99.90;;;;;;5070025;28;20180;-76
2022/03/16 12:04:16;;;;;;;2.83;2.63;;;13.10;99.90;;;;;;5071683;28;20199;-77
2022/03/16 12:06:56;;;;;;;2.23;1.53;;;13.60;99.90;;;;;;5060882;28;20279;-79
2022/03/16 12:09:41;;;;;;;3.13;2.47;;;14.00;99.90;;;;;;5071921;28;20172;-79
2022/03/16 12:15:11;;;;;;;1.43;1.33;;;14.40;99.90;;;;;;5072309;28;20268;-78
2022/03/16 12:17:42;;;;;;;3.70;1.63;;;14.00;99.90;;;;;;5071614;28;20290;-79
2022/03/16 12:20:15;;;;;;;2.53;1.63;;;14.10;99.90;;;;;;5070537;28;20550;-79
2022/03/16 12:22:44;;;;;;;1.37;1.10;;;14.20;99.90;;;;;;5058580;28;20267;-80
2022/03/16 12:25:29;;;;;;;2.07;1.97;;;13.80;99.90;;;;;;5070072;28;20683;-78
2022/03/16 12:31:16;;;;;;;0.83;0.83;;;13.90;99.90;;;;;;5061302;28;20237;-77
2022/03/16 12:33:44;;;;;;;0.73;0.73;;;14.20;99.90;;;;;;5071287;28;20184;-76
2022/03/16 12:36:11;;;;;;;2.73;1.87;;;14.00;99.90;;;;;;5071310;28;20188;-79
2022/03/16 12:38:42;;;;;;;4.27;2.70;;;13.90;99.90;;;;;;5071979;28;20206;-78
2022/03/16 12:43:56;;;;;;;2.10;2.00;;;13.20;99.90;;;;;;5060122;28;20203;-79
2022/03/16 12:46:47;;;;;;;2.37;2.17;;;13.40;99.90;;;;;;5071850;28;20192;-79
2022/03/16 12:49:18;;;;;;;5.37;2.77;;;13.20;99.90;;;;;;5044445;28;20195;-79
2022/03/16 12:51:49;;;;;;;3.70;1.90;;;13.30;99.90;;;;;;5071186;28;20180;-79
2022/03/16 12:54:28;;;;;;;2.33;2.13;;;13.50;99.90;;;;;;5071558;28;20265;-80
2022/03/16 12:57:06;;;;;;;0.90;0.87;;;13.10;99.90;;;;;;5071459;28;20188;-78
2022/03/16 12:59:38;;;;;;;1.37;1.37;;;13.00;99.90;;;;;;5070055;28;20176;-78
2022/03/16 13:02:11;;;;;;;1.20;1.17;;;13.10;99.90;;;;;;5074902;28;20199;-79
2022/03/16 13:04:37;;;;;;;1.10;1.00;;;12.90;99.90;;;;;;5075159;28;20311;-78
2022/03/16 13:07:04;;;;;;;2.07;1.93;;;12.80;99.90;;;;;;5075099;28;20188;-78
2022/03/16 13:09:34;;;;;;;1.10;1.10;;;12.80;99.90;;;;;;5073812;28;20192;-78
2022/03/16 13:12:15;;;;;;;0.53;0.53;;;12.90;99.90;;;;;;5074936;28;20168;-78
2022/03/16 13:14:47;;;;;;;0.93;0.93;;;12.90;99.90;;;;;;5061605;28;20198;-78
2022/03/16 13:17:13;;;;;;;2.57;1.30;;;12.90;99.90;;;;;;5074596;28;20215;-79
2022/03/16 13:19:41;;;;;;;2.27;0.90;;;13.00;99.90;;;;;;5073574;28;20276;-78
2022/03/16 13:22:13;;;;;;;1.03;1.00;;;13.10;99.90;;;;;;5074608;28;20543;-78